Time;durP1;ratioP1;P1;durP2;ratioP2;P2;SDS_P1;SDS_P2;PMS_P1;PMS_P2;Temp;Humidity;BMP_temperature;BMP_pressure;BME280_temperature;BME280_humidity;BME280_pressure;Samples;Min_cycle;Max_cycle;Signal;HPM_P1;HPM_P2
2022/09/24 00:00:58;;;;;;;8.25;2.97;;;11.90;99.90;;;;;;5079151;28;20045;-87
2022/09/24 00:03:25;;;;;;;2.85;2.55;;;13.20;99.90;;;;;;5079108;28;20051;-87
2022/09/24 00:05:52;;;;;;;4.22;2.72;;;12.00;99.90;;;;;;5076090;28;20076;-88
2022/09/24 00:08:19;;;;;;;11.02;4.25;;;12.00;99.90;;;;;;5052316;28;20467;-87
2022/09/24 00:10:47;;;;;;;7.65;2.70;;;12.00;99.90;;;;;;5052342;28;20373;-88
2022/09/24 00:13:16;;;;;;;3.05;2.38;;;12.00;99.90;;;;;;5069648;28;20068;-87
2022/09/24 00:15:47;;;;;;;2.42;2.00;;;12.00;99.90;;;;;;5069430;28;20051;-87
2022/09/24 00:18:16;;;;;;;2.72;2.35;;;12.10;99.90;;;;;;5068624;28;20049;-87
2022/09/24 00:20:42;;;;;;;10.60;2.95;;;12.10;99.90;;;;;;5050104;28;20865;-87
2022/09/24 00:23:10;;;;;;;6.53;3.97;;;12.10;99.90;;;;;;5067971;28;20100;-87
2022/09/24 00:28:25;;;;;;;5.88;3.53;;;13.20;99.90;;;;;;5066854;28;20132;-87
2022/09/24 00:30:51;;;;;;;4.47;2.05;;;12.10;99.90;;;;;;5068214;28;20119;-87
2022/09/24 00:33:17;;;;;;;4.88;2.25;;;12.20;99.90;;;;;;5068911;28;20056;-87
2022/09/24 00:35:42;;;;;;;2.42;2.03;;;12.20;99.90;;;;;;5050549;28;20477;-87
2022/09/24 00:38:08;;;;;;;8.23;3.25;;;13.30;99.90;;;;;;5050698;28;20105;-87
2022/09/24 00:40:36;;;;;;;5.68;2.28;;;12.20;99.90;;;;;;5070776;28;20044;-87
2022/09/24 00:43:24;;;;;;;6.72;3.10;;;13.40;99.90;;;;;;5051761;28;20398;-87
2022/09/24 00:45:54;;;;;;;3.45;2.55;;;12.30;99.90;;;;;;5068932;28;20149;-87
2022/09/24 00:48:20;;;;;;;3.75;2.83;;;12.30;99.90;;;;;;5068272;28;20056;-87
2022/09/24 00:50:47;;;;;;;14.82;3.42;;;12.30;99.90;;;;;;5067882;28;20052;-88
2022/09/24 00:53:17;;;;;;;4.85;3.03;;;12.40;99.90;;;;;;5049007;28;20820;-87
2022/09/24 00:55:46;;;;;;;7.07;3.42;;;12.30;99.90;;;;;;5067676;28;20056;-86
2022/09/24 00:58:13;;;;;;;3.55;2.20;;;12.60;99.90;;;;;;5067161;28;20048;-87
2022/09/24 01:00:44;;;;;;;2.10;1.30;;;12.30;99.90;;;;;;5033153;28;20127;-87
2022/09/24 01:03:21;;;;;;;2.63;1.63;;;12.50;99.90;;;;;;5032956;28;20044;-89
2022/09/24 01:05:47;;;;;;;7.43;2.42;;;12.30;99.90;;;;;;5048912;28;20060;-87
2022/09/24 01:08:14;;;;;;;4.93;3.42;;;12.40;99.90;;;;;;5067195;28;20048;-87
2022/09/24 01:10:55;;;;;;;3.90;2.05;;;12.30;99.90;;;;;;5049240;28;20116;-87
2022/09/24 01:13:29;;;;;;;5.90;3.33;;;12.40;99.90;;;;;;5067013;28;20052;-87
2022/09/24 01:16:06;;;;;;;4.90;2.40;;;12.40;99.90;;;;;;5048805;28;20048;-87
2022/09/24 01:18:43;;;;;;;2.35;2.15;;;12.40;99.90;;;;;;5048971;28;20051;-87
2022/09/24 01:21:29;;;;;;;2.95;2.25;;;12.40;99.90;;;;;;5048419;28;20040;-86
2022/09/24 01:24:26;;;;;;;3.30;1.77;;;12.40;99.90;;;;;;5047796;28;20048;-86
2022/09/24 01:26:52;;;;;;;4.38;3.33;;;12.40;99.90;;;;;;5066673;28;20058;-86
2022/09/24 01:29:48;;;;;;;3.78;1.42;;;12.80;99.90;;;;;;5031832;28;20049;-86
2022/09/24 01:32:39;;;;;;;3.65;2.70;;;12.40;99.90;;;;;;5048959;28;20060;-86
2022/09/24 01:35:22;;;;;;;1.95;1.35;;;12.40;99.90;;;;;;5048854;28;20056;-86
2022/09/24 01:38:00;;;;;;;2.20;2.00;;;12.50;99.90;;;;;;5066966;28;20053;-86
2022/09/24 01:40:28;;;;;;;3.13;2.30;;;12.40;99.90;;;;;;5066869;28;20084;-86
2022/09/24 01:42:57;;;;;;;8.40;3.50;;;12.50;99.90;;;;;;5067225;28;20101;-87
2022/09/24 01:45:25;;;;;;;2.45;2.10;;;13.30;99.90;;;;;;5048789;28;20920;-87
2022/09/24 01:47:51;;;;;;;6.60;4.28;;;12.60;99.90;;;;;;5049199;28;20055;-87
2022/09/24 01:50:18;;;;;;;3.65;2.75;;;12.60;99.90;;;;;;5032773;28;20048;-87
2022/09/24 01:52:53;;;;;;;4.50;2.45;;;12.60;99.90;;;;;;5048953;28;20067;-88
2022/09/24 01:55:27;;;;;;;3.40;3.10;;;12.90;99.90;;;;;;5032360;28;20056;-87
2022/09/24 01:58:03;;;;;;;3.00;1.52;;;12.60;99.90;;;;;;5145109;22;20044;-80
2022/09/24 02:00:29;;;;;;;4.20;3.45;;;12.70;99.90;;;;;;5098668;28;20036;-79
2022/09/24 02:03:10;;;;;;;5.50;3.15;;;12.60;99.90;;;;;;5097464;28;20603;-78
2022/09/24 02:06:08;;;;;;;7.93;4.50;;;12.70;99.90;;;;;;5091590;28;20547;-77
2022/09/24 02:08:43;;;;;;;3.42;2.78;;;12.70;99.90;;;;;;5089953;28;20085;-80
2022/09/24 02:11:14;;;;;;;5.70;2.85;;;12.70;99.90;;;;;;5096778;28;20127;-78
2022/09/24 02:14:12;;;;;;;5.43;4.15;;;12.60;99.90;;;;;;5093047;28;20637;-79
2022/09/24 02:16:44;;;;;;;5.35;3.20;;;12.60;99.90;;;;;;5076341;28;20048;-79
2022/09/24 02:19:17;;;;;;;5.18;3.13;;;12.70;99.90;;;;;;5079405;28;20044;-78
2022/09/24 02:21:45;;;;;;;4.28;3.15;;;12.60;99.90;;;;;;5076354;28;20454;-77
2022/09/24 02:24:18;;;;;;;6.30;3.40;;;12.70;99.90;;;;;;5075909;28;20472;-78
2022/09/24 02:26:44;;;;;;;7.95;5.43;;;12.60;99.90;;;;;;5074623;28;20102;-78
2022/09/24 02:29:11;;;;;;;3.83;2.25;;;12.70;99.90;;;;;;5080438;28;20071;-79
2022/09/24 02:31:41;;;;;;;6.07;4.57;;;12.70;99.90;;;;;;5094979;28;20051;-79
2022/09/24 02:34:19;;;;;;;3.78;3.38;;;12.70;99.90;;;;;;5090474;28;20099;-79
2022/09/24 02:36:57;;;;;;;2.50;2.25;;;12.70;99.90;;;;;;5091905;28;20469;-77
2022/09/24 02:39:23;;;;;;;3.85;3.47;;;12.70;99.90;;;;;;5092166;28;20040;-78
2022/09/24 02:41:51;;;;;;;8.90;4.13;;;12.70;99.90;;;;;;5090697;28;20040;-77
2022/09/24 02:44:18;;;;;;;10.65;4.13;;;12.70;99.90;;;;;;5090783;28;20070;-77
2022/09/24 02:46:47;;;;;;;5.18;4.50;;;12.70;99.90;;;;;;5090975;28;20048;-77
2022/09/24 02:49:13;;;;;;;5.35;3.47;;;12.70;99.90;;;;;;5089740;28;20071;-78
2022/09/24 02:51:40;;;;;;;3.25;2.97;;;12.70;99.90;;;;;;5089349;28;20129;-77
2022/09/24 02:54:07;;;;;;;5.57;4.32;;;13.80;99.90;;;;;;5090022;28;20076;-79
2022/09/24 02:56:33;;;;;;;6.95;4.28;;;12.60;99.90;;;;;;5091453;28;20109;-79
2022/09/24 02:59:01;;;;;;;5.47;3.03;;;12.80;99.90;;;;;;5090841;28;20167;-79
2022/09/24 03:01:28;;;;;;;4.85;4.28;;;13.10;99.90;;;;;;5092784;28;20055;-79
2022/09/24 03:03:53;;;;;;;6.07;3.58;;;12.60;99.90;;;;;;5092721;28;20050;-77
2022/09/24 03:06:19;;;;;;;10.95;6.30;;;12.70;99.90;;;;;;5077428;28;20072;-78
2022/09/24 03:08:45;;;;;;;4.38;3.15;;;12.70;99.90;;;;;;5071692;28;20048;-78
2022/09/24 03:11:12;;;;;;;4.63;2.97;;;13.80;99.90;;;;;;5086322;28;20126;-78
2022/09/24 03:13:38;;;;;;;18.33;4.50;;;12.60;99.90;;;;;;5093080;28;20083;-78
2022/09/24 03:16:04;;;;;;;5.65;4.03;;;12.70;99.90;;;;;;5093795;28;20028;-76
2022/09/24 03:18:30;;;;;;;4.40;2.53;;;12.70;99.90;;;;;;5093531;28;20630;-78
2022/09/24 03:21:16;;;;;;;7.25;4.18;;;13.00;99.90;;;;;;5089768;28;20048;-75
2022/09/24 03:23:42;;;;;;;2.95;2.63;;;12.70;99.90;;;;;;5090810;28;20054;-78
2022/09/24 03:26:08;;;;;;;2.45;1.88;;;12.70;99.90;;;;;;5090242;28;20127;-77
2022/09/24 03:28:33;;;;;;;3.75;2.55;;;12.70;99.90;;;;;;5088528;28;20071;-78
2022/09/24 03:31:00;;;;;;;5.50;3.58;;;12.70;99.90;;;;;;5088546;28;20055;-76
2022/09/24 03:33:40;;;;;;;6.82;3.40;;;12.70;99.90;;;;;;5089046;28;20048;-77
2022/09/24 03:36:12;;;;;;;4.18;3.00;;;12.70;99.90;;;;;;5089364;28;20154;-76
2022/09/24 03:38:39;;;;;;;3.03;2.47;;;12.70;99.90;;;;;;5088157;28;20474;-77
2022/09/24 03:41:06;;;;;;;4.55;3.33;;;12.70;99.90;;;;;;5087882;28;20486;-79
2022/09/24 03:43:33;;;;;;;6.28;4.00;;;12.70;99.90;;;;;;5088471;28;20134;-77
2022/09/24 03:45:59;;;;;;;2.70;2.42;;;12.70;99.90;;;;;;5088608;28;20103;-77
2022/09/24 03:48:26;;;;;;;3.65;2.75;;;12.70;99.90;;;;;;5087599;28;20312;-76
2022/09/24 03:50:52;;;;;;;4.07;3.05;;;12.70;99.90;;;;;;5089179;28;20044;-78
2022/09/24 03:53:19;;;;;;;4.28;2.78;;;12.70;99.90;;;;;;5089493;28;20055;-78
2022/09/24 03:55:47;;;;;;;0.98;0.95;;;12.70;99.90;;;;;;5088644;28;20434;-76
2022/09/24 03:58:14;;;;;;;3.00;2.55;;;12.70;99.90;;;;;;5089183;28;20105;-77
2022/09/24 04:00:41;;;;;;;4.40;2.03;;;12.70;99.90;;;;;;5088744;28;20059;-77
2022/09/24 04:03:08;;;;;;;4.45;2.63;;;12.70;99.90;;;;;;5070860;28;20418;-78
2022/09/24 04:05:34;;;;;;;3.00;2.50;;;12.70;99.90;;;;;;5089064;28;20056;-80
2022/09/24 04:08:01;;;;;;;4.97;3.65;;;12.70;99.90;;;;;;5089854;28;20043;-81
2022/09/24 04:10:28;;;;;;;4.38;2.42;;;12.70;99.90;;;;;;5089056;28;20185;-77
2022/09/24 04:12:54;;;;;;;4.78;2.60;;;12.70;99.90;;;;;;5087820;28;20059;-77
2022/09/24 04:15:20;;;;;;;6.15;1.83;;;12.70;99.90;;;;;;5087248;28;20040;-77
2022/09/24 04:18:12;;;;;;;5.18;3.60;;;12.70;99.90;;;;;;5087272;28;20192;-76
2022/09/24 04:20:38;;;;;;;4.28;2.42;;;12.70;99.90;;;;;;5080762;28;20056;-79
2022/09/24 04:23:04;;;;;;;5.13;3.22;;;12.70;99.90;;;;;;5084242;28;20104;-80
2022/09/24 04:25:31;;;;;;;15.65;4.30;;;12.70;99.90;;;;;;5088888;28;20052;-78
2022/09/24 04:28:02;;;;;;;6.75;3.88;;;12.70;99.90;;;;;;5087659;28;20044;-77
2022/09/24 04:30:29;;;;;;;6.22;4.03;;;12.70;99.90;;;;;;5086720;28;20079;-77
2022/09/24 04:32:59;;;;;;;3.70;2.25;;;12.70;99.90;;;;;;5092194;28;20087;-77
2022/09/24 04:35:27;;;;;;;2.75;2.17;;;12.70;99.90;;;;;;5086713;28;20052;-78
2022/09/24 04:37:52;;;;;;;5.88;3.20;;;12.70;99.90;;;;;;5086119;28;20547;-77
2022/09/24 04:40:18;;;;;;;7.68;3.25;;;12.70;99.90;;;;;;5090725;28;20044;-79
2022/09/24 04:42:45;;;;;;;3.20;1.80;;;12.70;99.90;;;;;;5090593;28;20071;-77
2022/09/24 04:45:12;;;;;;;3.35;2.50;;;12.70;99.90;;;;;;5091802;28;20047;-77
2022/09/24 04:47:41;;;;;;;2.85;2.15;;;13.60;99.90;;;;;;5092663;28;20044;-77
2022/09/24 04:50:08;;;;;;;2.80;1.85;;;12.70;99.90;;;;;;5095514;28;20426;-79
2022/09/24 04:52:34;;;;;;;3.40;2.00;;;12.70;99.90;;;;;;5094132;28;20467;-80
2022/09/24 04:55:01;;;;;;;2.75;2.10;;;12.70;99.90;;;;;;5087504;28;20079;-80
2022/09/24 04:57:28;;;;;;;7.00;4.18;;;12.70;99.90;;;;;;5094654;28;20418;-79
2022/09/24 04:59:54;;;;;;;5.97;3.55;;;12.70;99.90;;;;;;5095356;28;20308;-77
2022/09/24 05:02:22;;;;;;;5.55;2.75;;;12.70;99.90;;;;;;5096054;28;20486;-77
2022/09/24 05:04:48;;;;;;;7.72;4.18;;;12.70;99.90;;;;;;5095242;28;20044;-78
2022/09/24 05:07:14;;;;;;;4.38;3.40;;;12.70;99.90;;;;;;5100845;28;20040;-79
2022/09/24 05:09:39;;;;;;;6.78;4.45;;;12.70;99.90;;;;;;5100079;28;20126;-79
2022/09/24 05:12:05;;;;;;;5.70;4.22;;;12.70;99.90;;;;;;5099417;28;20051;-78
2022/09/24 05:14:30;;;;;;;2.58;2.33;;;12.80;99.90;;;;;;5093458;28;20115;-79
2022/09/24 05:16:57;;;;;;;4.60;3.42;;;12.70;99.90;;;;;;5101662;28;20043;-80
2022/09/24 05:19:22;;;;;;;2.75;2.10;;;12.70;99.90;;;;;;5100626;28;20692;-77
2022/09/24 05:21:48;;;;;;;2.90;2.03;;;12.70;99.90;;;;;;5096879;28;20063;-77
2022/09/24 05:24:14;;;;;;;2.13;1.85;;;12.70;99.90;;;;;;5096469;28;20048;-76
2022/09/24 05:29:24;;;;;;;1.45;0.68;;;12.80;99.90;;;;;;5097785;28;20079;-76
2022/09/24 05:31:50;;;;;;;4.63;2.45;;;12.80;99.90;;;;;;5080132;28;20047;-77
2022/09/24 05:34:16;;;;;;;1.20;0.98;;;12.80;99.90;;;;;;5096669;28;20101;-76
2022/09/24 05:36:43;;;;;;;2.47;1.95;;;12.80;99.90;;;;;;5078166;28;20063;-79
2022/09/24 05:39:10;;;;;;;1.60;1.23;;;13.00;99.90;;;;;;5096630;28;20426;-78
2022/09/24 05:41:37;;;;;;;2.88;1.77;;;12.80;99.90;;;;;;5096564;28;20186;-78
2022/09/24 05:44:03;;;;;;;2.53;2.25;;;12.80;99.90;;;;;;5098035;28;20085;-77
2022/09/24 05:46:29;;;;;;;2.75;1.67;;;12.80;99.90;;;;;;5098231;28;20051;-79
2022/09/24 05:48:55;;;;;;;0.75;0.68;;;12.90;99.90;;;;;;5099047;28;20068;-78
2022/09/24 05:51:21;;;;;;;1.38;1.02;;;12.90;99.90;;;;;;5098907;28;20105;-77
2022/09/24 05:53:47;;;;;;;0.60;0.60;;;12.90;99.90;;;;;;5082529;28;20048;-78
2022/09/24 05:56:13;;;;;;;0.88;0.77;;;12.90;99.90;;;;;;5103725;28;20055;-78
2022/09/24 05:58:38;;;;;;;2.75;1.55;;;12.90;99.90;;;;;;5104667;28;20084;-79
2022/09/24 06:01:04;;;;;;;1.83;1.55;;;13.00;99.90;;;;;;5086451;28;20047;-80
2022/09/24 06:03:30;;;;;;;3.30;2.00;;;13.00;99.90;;;;;;5101958;28;20042;-79
2022/09/24 06:06:00;;;;;;;1.23;1.13;;;13.00;99.90;;;;;;5104280;28;20024;-77
2022/09/24 06:08:28;;;;;;;1.83;1.67;;;13.00;99.90;;;;;;5103619;28;20448;-78
2022/09/24 06:11:05;;;;;;;0.85;0.85;;;13.00;99.90;;;;;;5103030;28;20040;-79
2022/09/24 06:13:33;;;;;;;3.75;2.28;;;13.00;99.90;;;;;;5097580;28;20051;-77
2022/09/24 06:16:01;;;;;;;2.92;2.28;;;13.10;99.90;;;;;;5096471;28;20047;-79
2022/09/24 06:18:26;;;;;;;1.15;0.85;;;13.10;99.90;;;;;;5096305;28;20075;-79
2022/09/24 06:20:53;;;;;;;1.38;1.27;;;13.10;99.90;;;;;;5095044;28;20043;-76
2022/09/24 06:23:19;;;;;;;1.52;1.25;;;13.20;99.90;;;;;;5095699;28;20137;-77
2022/09/24 06:25:48;;;;;;;0.60;0.60;;;13.20;99.90;;;;;;5095451;28;20044;-79
2022/09/24 06:28:14;;;;;;;2.75;2.47;;;13.20;99.90;;;;;;5098325;28;20036;-78
2022/09/24 06:30:40;;;;;;;1.50;1.30;;;13.20;99.90;;;;;;5099734;28;20040;-76
2022/09/24 06:33:12;;;;;;;2.03;1.20;;;13.20;99.90;;;;;;5079684;28;20052;-76
2022/09/24 06:35:40;;;;;;;0.73;0.73;;;13.30;99.90;;;;;;5097440;28;20048;-80
2022/09/24 06:38:09;;;;;;;1.73;1.13;;;13.30;99.90;;;;;;5093738;28;20536;-78
2022/09/24 06:40:35;;;;;;;0.30;0.30;;;13.30;99.90;;;;;;5084861;28;20044;-78
2022/09/24 06:43:00;;;;;;;2.03;1.08;;;13.30;99.90;;;;;;5101592;28;20449;-77
2022/09/24 06:45:27;;;;;;;0.85;0.47;;;13.20;99.90;;;;;;5099461;28;20048;-78
2022/09/24 06:47:57;;;;;;;0.05;0.05;;;13.30;99.90;;;;;;5101463;28;20040;-78
2022/09/24 06:50:24;;;;;;;0.05;0.05;;;13.30;99.90;;;;;;5101525;28;20036;-78
2022/09/24 06:52:50;;;;;;;0.22;0.22;;;13.30;99.90;;;;;;5095373;28;20051;-77
2022/09/24 06:55:17;;;;;;;2.92;1.58;;;13.30;99.90;;;;;;5094372;28;20036;-78
2022/09/24 06:57:43;;;;;;;0.47;0.35;;;13.20;99.90;;;;;;5099362;28;20082;-78
2022/09/24 07:00:11;;;;;;;1.40;0.65;;;13.30;99.90;;;;;;5098226;28;20048;-80
2022/09/24 07:02:37;;;;;;;0.75;0.38;;;13.20;99.90;;;;;;5099658;28;20048;-79
2022/09/24 07:05:03;;;;;;;0.20;0.20;;;13.30;99.90;;;;;;5100566;28;20147;-78
2022/09/24 07:07:29;;;;;;;4.25;1.30;;;13.30;99.90;;;;;;5101046;28;20055;-78
2022/09/24 07:10:07;;;;;;;0.90;0.10;;;13.40;99.90;;;;;;5100213;28;20482;-77
2022/09/24 07:12:35;;;;;;;0.25;0.22;;;13.40;99.90;;;;;;5100449;28;20052;-78
2022/09/24 07:15:01;;;;;;;0.70;0.50;;;13.50;99.90;;;;;;5098354;28;20059;-78
2022/09/24 07:17:27;;;;;;;0.20;0.20;;;13.50;99.90;;;;;;5097407;28;20417;-79
2022/09/24 07:19:54;;;;;;;0.35;0.20;;;13.60;99.90;;;;;;5092850;28;20032;-79
2022/09/24 07:22:21;;;;;;;3.50;1.75;;;13.50;99.90;;;;;;5091876;28;20048;-78
2022/09/24 07:24:47;;;;;;;0.98;0.30;;;13.50;99.90;;;;;;5090765;28;20115;-79
2022/09/24 07:27:13;;;;;;;1.05;0.85;;;13.50;99.90;;;;;;5092669;28;20080;-77
2022/09/24 07:29:39;;;;;;;1.25;1.13;;;13.50;99.90;;;;;;5088988;28;20048;-78
2022/09/24 07:32:05;;;;;;;0.50;0.50;;;13.60;99.90;;;;;;5077392;28;20056;-79
2022/09/24 07:34:31;;;;;;;5.25;0.57;;;13.60;99.90;;;;;;5092728;28;20044;-79
2022/09/24 07:36:58;;;;;;;0.17;0.17;;;13.60;99.90;;;;;;5091635;28;20043;-77
2022/09/24 07:39:24;;;;;;;1.08;0.85;;;13.60;99.90;;;;;;5090969;28;20049;-78
2022/09/24 07:41:53;;;;;;;0.10;0.05;;;13.70;99.90;;;;;;5094484;28;20595;-79
2022/09/24 07:44:19;;;;;;;0.90;0.85;;;13.70;99.90;;;;;;5093717;28;20040;-79
2022/09/24 07:46:49;;;;;;;0.22;0.20;;;13.80;99.90;;;;;;5093099;28;20070;-77
2022/09/24 07:49:15;;;;;;;0.15;0.08;;;13.70;99.90;;;;;;5071987;28;20052;-79
2022/09/24 07:51:41;;;;;;;0.22;0.20;;;13.70;99.90;;;;;;5072233;28;20049;-79
2022/09/24 07:54:07;;;;;;;4.75;0.93;;;13.60;99.90;;;;;;5073492;28;20067;-77
2022/09/24 07:56:33;;;;;;;0.00;0.00;;;13.60;99.90;;;;;;5073953;28;20094;-80
2022/09/24 07:59:00;;;;;;;0.15;0.15;;;13.60;99.90;;;;;;5094340;28;20055;-76
2022/09/24 08:01:26;;;;;;;0.00;0.00;;;13.60;99.90;;;;;;5091470;28;20036;-79
2022/09/24 08:03:52;;;;;;;0.00;0.00;;;13.60;99.90;;;;;;5076083;28;20075;-78
2022/09/24 08:06:21;;;;;;;2.83;0.80;;;13.50;99.90;;;;;;5096578;28;20043;-79
2022/09/24 08:08:52;;;;;;;0.10;0.10;;;13.50;99.90;;;;;;5081050;28;20040;-78
2022/09/24 08:11:18;;;;;;;0.00;0.00;;;13.40;99.90;;;;;;5083131;28;20509;-77
2022/09/24 08:13:44;;;;;;;0.00;0.00;;;13.40;99.90;;;;;;5076843;28;20055;-78
2022/09/24 08:16:11;;;;;;;0.00;0.00;;;13.40;99.90;;;;;;5073584;28;20044;-78
2022/09/24 08:18:38;;;;;;;0.00;0.00;;;13.40;99.90;;;;;;5085710;28;20052;-79
2022/09/24 08:21:06;;;;;;;3.63;0.55;;;13.40;99.90;;;;;;5092612;28;20079;-77
2022/09/24 08:23:33;;;;;;;0.20;0.20;;;13.40;99.90;;;;;;5091980;28;20536;-79
2022/09/24 08:25:59;;;;;;;0.00;0.00;;;13.40;99.90;;;;;;5086753;28;20051;-77
2022/09/24 08:28:25;;;;;;;1.00;0.85;;;13.40;99.90;;;;;;5088389;28;20087;-78
2022/09/24 08:30:51;;;;;;;0.65;0.43;;;13.40;99.90;;;;;;5092079;28;20086;-78
2022/09/24 08:33:17;;;;;;;0.00;0.00;;;13.50;99.90;;;;;;5094402;28;20536;-80
2022/09/24 08:35:42;;;;;;;0.32;0.32;;;13.60;99.90;;;;;;5083277;28;20038;-77
2022/09/24 08:38:09;;;;;;;0.10;0.10;;;13.60;99.90;;;;;;5089165;28;20058;-78
2022/09/24 08:40:48;;;;;;;6.32;1.75;;;13.60;99.90;;;;;;5094653;28;20453;-77
2022/09/24 08:43:24;;;;;;;0.43;0.43;;;13.70;99.90;;;;;;5088020;28;20044;-78
2022/09/24 08:48:46;;;;;;;0.00;0.00;;;13.80;99.90;;;;;;5089107;28;20052;-77
2022/09/24 08:51:16;;;;;;;0.15;0.15;;;13.80;99.90;;;;;;5092462;28;20519;-79
2022/09/24 08:54:13;;;;;;;0.20;0.13;;;13.80;99.90;;;;;;5092281;28;20040;-77
2022/09/24 08:56:44;;;;;;;0.20;0.08;;;13.90;99.90;;;;;;5060062;28;20052;-79
2022/09/24 08:59:25;;;;;;;0.00;0.00;;;13.80;99.90;;;;;;5070082;28;20076;-78
2022/09/24 09:02:02;;;;;;;0.30;0.25;;;13.90;99.90;;;;;;5076975;28;20047;-80
2022/09/24 09:04:57;;;;;;;0.43;0.40;;;13.80;99.90;;;;;;5080192;28;20052;-78
2022/09/24 09:07:28;;;;;;;0.10;0.05;;;13.90;99.90;;;;;;5096937;28;20099;-79
2022/09/24 09:10:03;;;;;;;0.55;0.47;;;13.90;99.90;;;;;;5092327;28;20087;-81
2022/09/24 09:12:43;;;;;;;0.00;0.00;;;13.90;99.90;;;;;;5098173;28;20067;-77
2022/09/24 09:15:28;;;;;;;0.80;0.68;;;13.90;99.90;;;;;;5096213;28;20044;-78
2022/09/24 09:18:12;;;;;;;1.23;0.47;;;13.90;99.90;;;;;;5092954;28;20054;-78
2022/09/24 09:20:42;;;;;;;3.65;1.45;;;13.90;99.90;;;;;;5087536;28;20047;-77
2022/09/24 09:23:18;;;;;;;0.25;0.25;;;13.90;99.90;;;;;;5093337;28;20032;-77
2022/09/24 09:25:51;;;;;;;0.00;0.00;;;13.90;99.90;;;;;;5092128;28;20070;-77
2022/09/24 09:28:18;;;;;;;0.40;0.38;;;13.90;99.90;;;;;;5096057;28;20440;-78
2022/09/24 09:31:07;;;;;;;1.08;0.40;;;13.90;99.90;;;;;;5087939;28;20377;-77
2022/09/24 09:34:17;;;;;;;2.20;1.25;;;13.80;99.90;;;;;;5071947;28;20112;-79
2022/09/24 09:37:12;;;;;;;0.38;0.38;;;13.80;99.90;;;;;;4988274;28;20050;-78
2022/09/24 09:39:52;;;;;;;0.00;0.00;;;13.80;99.90;;;;;;5075245;28;20064;-76
2022/09/24 09:42:21;;;;;;;3.03;2.08;;;13.80;99.90;;;;;;5050542;28;20040;-77
2022/09/24 09:44:48;;;;;;;0.00;0.00;;;13.80;99.90;;;;;;5073184;28;20078;-77
2022/09/24 09:47:40;;;;;;;12.90;0.60;;;13.80;99.90;;;;;;5091385;28;20654;-78
2022/09/24 09:50:26;;;;;;;0.10;0.05;;;13.80;99.90;;;;;;5093943;28;20055;-78
2022/09/24 09:52:53;;;;;;;1.33;0.73;;;13.80;99.90;;;;;;5088994;28;20143;-78
2022/09/24 09:55:28;;;;;;;0.10;0.10;;;13.80;99.90;;;;;;5095623;28;20044;-79
2022/09/24 09:58:14;;;;;;;0.43;0.35;;;13.80;99.90;;;;;;5094606;28;20295;-78
2022/09/24 10:00:40;;;;;;;0.52;0.40;;;13.80;99.90;;;;;;5092896;28;20046;-77
2022/09/24 10:03:33;;;;;;;3.33;1.38;;;13.80;99.90;;;;;;5096346;28;20128;-76
2022/09/24 10:06:01;;;;;;;0.00;0.00;;;13.70;99.90;;;;;;5092880;28;20055;-77
2022/09/24 10:08:27;;;;;;;0.00;0.00;;;13.60;99.90;;;;;;5100093;28;20074;-78
2022/09/24 10:11:01;;;;;;;0.10;0.10;;;13.60;99.90;;;;;;5095277;28;20440;-79
2022/09/24 10:13:28;;;;;;;3.20;0.93;;;13.60;99.90;;;;;;5105584;28;20044;-79
2022/09/24 10:15:59;;;;;;;2.35;1.58;;;13.80;99.90;;;;;;5096512;28;20047;-78
2022/09/24 10:18:35;;;;;;;0.40;0.35;;;13.80;99.90;;;;;;5094572;28;20503;-78
2022/09/24 10:21:07;;;;;;;1.30;0.60;;;14.00;99.90;;;;;;5097655;28;20120;-78
2022/09/24 10:23:40;;;;;;;0.10;0.10;;;14.10;99.90;;;;;;5096392;28;20517;-79
2022/09/24 10:26:07;;;;;;;0.00;0.00;;;14.30;99.90;;;;;;5100467;28;20051;-77
2022/09/24 10:31:25;;;;;;;1.00;0.50;;;14.40;99.90;;;;;;5104549;28;20338;-78
2022/09/24 10:33:55;;;;;;;0.00;0.00;;;14.50;99.90;;;;;;5097984;28;20052;-79
2022/09/24 10:36:26;;;;;;;0.20;0.20;;;14.60;99.90;;;;;;5102699;28;20048;-78
2022/09/24 10:39:14;;;;;;;0.60;0.60;;;14.50;99.90;;;;;;5104604;28;20359;-79
2022/09/24 10:41:51;;;;;;;0.00;0.00;;;14.50;99.90;;;;;;5107681;28;20092;-78
2022/09/24 10:44:19;;;;;;;0.63;0.63;;;14.50;99.90;;;;;;5106992;28;20020;-79
2022/09/24 10:46:59;;;;;;;14.43;0.43;;;14.50;99.90;;;;;;5104798;28;20091;-76
2022/09/24 10:49:28;;;;;;;0.45;0.38;;;14.40;99.90;;;;;;5105575;28;20037;-77
2022/09/24 10:52:09;;;;;;;2.30;0.77;;;14.50;99.90;;;;;;5106244;28;20298;-79
2022/09/24 10:54:43;;;;;;;0.25;0.10;;;14.60;99.90;;;;;;5101127;28;20048;-79
2022/09/24 10:57:38;;;;;;;7.88;0.22;;;14.60;99.90;;;;;;5103456;28;20076;-79
2022/09/24 11:00:22;;;;;;;0.10;0.10;;;14.70;99.90;;;;;;5108083;28;20052;-80
2022/09/24 11:03:06;;;;;;;0.10;0.10;;;14.70;99.90;;;;;;5106277;28;20539;-78
2022/09/24 11:05:55;;;;;;;0.38;0.35;;;14.80;99.90;;;;;;5106230;28;20065;-78
2022/09/24 11:08:42;;;;;;;0.10;0.10;;;14.70;99.90;;;;;;5103110;28;20024;-77
2022/09/24 11:11:30;;;;;;;0.00;0.00;;;14.50;99.90;;;;;;5106131;28;20109;-79
2022/09/24 11:14:15;;;;;;;0.85;0.57;;;14.50;99.90;;;;;;5103320;28;20051;-78
2022/09/24 11:17:05;;;;;;;0.00;0.00;;;14.40;99.90;;;;;;5101835;28;20555;-78
2022/09/24 11:20:11;;;;;;;0.20;0.20;;;14.20;99.90;;;;;;5105810;28;20044;-80
2022/09/24 11:22:40;;;;;;;0.00;0.00;;;14.20;99.90;;;;;;5105234;28;20040;-79
2022/09/24 11:25:19;;;;;;;0.00;0.00;;;14.10;99.90;;;;;;5109172;28;20048;-79
2022/09/24 11:27:54;;;;;;;0.00;0.00;;;14.00;99.90;;;;;;5112373;28;20056;-80
2022/09/24 11:30:26;;;;;;;0.13;0.13;;;14.00;99.90;;;;;;5109845;28;20410;-80
2022/09/24 11:33:07;;;;;;;0.00;0.00;;;14.00;99.90;;;;;;5106749;28;20550;-79
2022/09/24 11:35:46;;;;;;;0.45;0.45;;;14.10;99.90;;;;;;5111571;28;20043;-78
2022/09/24 11:38:20;;;;;;;17.55;1.55;;;14.10;99.90;;;;;;5112053;28;20068;-79
2022/09/24 11:40:51;;;;;;;0.08;0.08;;;14.20;99.90;;;;;;5092062;28;20108;-80
2022/09/24 11:43:37;;;;;;;0.03;0.03;;;14.20;99.90;;;;;;5112185;28;20058;-79
2022/09/24 11:46:15;;;;;;;0.23;0.23;;;14.30;99.90;;;;;;5114031;28;20040;-80
2022/09/24 11:49:00;;;;;;;0.00;0.00;;;14.40;99.90;;;;;;5112209;28;20043;-79
2022/09/24 11:51:29;;;;;;;0.00;0.00;;;14.40;99.90;;;;;;5112740;28;20036;-79
2022/09/24 11:54:21;;;;;;;1.00;0.32;;;14.40;99.90;;;;;;5112853;28;20036;-79
2022/09/24 11:56:52;;;;;;;0.00;0.00;;;14.40;99.90;;;;;;5111869;28;20052;-79
2022/09/24 11:59:46;;;;;;;0.00;0.00;;;14.40;99.90;;;;;;5109520;28;20074;-80
2022/09/24 12:02:24;;;;;;;0.00;0.00;;;14.50;99.90;;;;;;5105784;28;20501;-80
2022/09/24 12:04:56;;;;;;;0.25;0.20;;;14.50;99.90;;;;;;5109352;28;20028;-80
2022/09/24 12:08:11;;;;;;;0.00;0.00;;;14.40;99.90;;;;;;5108038;28;20069;-78
2022/09/24 12:10:45;;;;;;;2.00;0.32;;;14.40;99.90;;;;;;5088228;28;20040;-80
2022/09/24 12:13:27;;;;;;;1.95;0.82;;;14.30;99.90;;;;;;5110277;28;20047;-80
2022/09/24 12:16:12;;;;;;;0.43;0.43;;;14.20;99.90;;;;;;5109091;28;20032;-79
2022/09/24 12:19:07;;;;;;;3.55;0.75;;;14.20;99.90;;;;;;5109030;28;20044;-79
2022/09/24 12:21:40;;;;;;;0.00;0.00;;;14.20;99.90;;;;;;5109532;28;20039;-80
2022/09/24 12:24:18;;;;;;;1.27;0.75;;;14.20;99.90;;;;;;5108163;28;20048;-79
2022/09/24 12:26:45;;;;;;;0.00;0.00;;;14.10;99.90;;;;;;5109136;28;20039;-79
2022/09/24 12:35:20;;;;;;;0.00;0.00;;;13.80;99.90;;;;;;5104900;28;20048;-80
2022/09/24 12:37:50;;;;;;;0.00;0.00;;;13.70;99.90;;;;;;5110441;28;20047;-81
2022/09/24 12:40:15;;;;;;;0.00;0.00;;;13.60;99.90;;;;;;5123045;28;20032;-80
2022/09/24 12:42:51;;;;;;;0.00;0.00;;;13.50;99.90;;;;;;5118601;28;20059;-79
2022/09/24 12:45:21;;;;;;;0.00;0.00;;;13.40;99.90;;;;;;5120221;28;20047;-80
2022/09/24 12:47:59;;;;;;;0.22;0.22;;;13.30;99.90;;;;;;5083538;28;20068;-80
2022/09/24 12:50:28;;;;;;;10.82;0.57;;;13.20;99.90;;;;;;5065122;28;20056;-80
2022/09/24 12:52:54;;;;;;;0.10;0.10;;;13.20;99.90;;;;;;5096557;28;20032;-79
2022/09/24 12:55:32;;;;;;;0.00;0.00;;;13.20;99.90;;;;;;5109866;28;20060;-79
2022/09/24 12:58:07;;;;;;;0.00;0.00;;;13.20;99.90;;;;;;5102391;28;20052;-80
2022/09/24 13:00:45;;;;;;;0.00;0.00;;;13.20;99.90;;;;;;5103167;28;20048;-80
2022/09/24 13:03:33;;;;;;;0.00;0.00;;;13.20;99.90;;;;;;5097828;28;20092;-80
2022/09/24 13:05:59;;;;;;;0.00;0.00;;;13.20;99.90;;;;;;5106144;28;20073;-79
2022/09/24 13:08:35;;;;;;;6.65;1.25;;;13.20;99.90;;;;;;5101880;28;20071;-80
2022/09/24 13:11:05;;;;;;;0.65;0.10;;;13.20;99.90;;;;;;5095940;28;20134;-80
2022/09/24 13:13:35;;;;;;;1.40;0.73;;;13.20;99.90;;;;;;5100199;28;20059;-79
2022/09/24 13:16:04;;;;;;;0.00;0.00;;;13.20;99.90;;;;;;5083765;28;20087;-78
2022/09/24 13:18:32;;;;;;;1.27;0.55;;;13.20;99.90;;;;;;5094362;28;20035;-79
2022/09/24 13:21:16;;;;;;;4.38;0.68;;;13.20;99.90;;;;;;5083935;28;20024;-80
2022/09/24 13:23:47;;;;;;;0.13;0.13;;;13.30;99.90;;;;;;5101559;28;20063;-79
2022/09/24 13:26:33;;;;;;;0.20;0.20;;;13.30;99.90;;;;;;5083589;28;20066;-79